createdAt,value
2023-02-06T00:04:23.793Z,2.9
2023-02-06T00:10:00.198Z,2.9
2023-02-06T00:15:31.916Z,3
2023-02-06T00:21:03.421Z,3.2
2023-02-06T00:26:25.981Z,3.2
2023-02-06T00:32:01.600Z,3.3
2023-02-06T00:37:43.859Z,3.3
2023-02-06T00:43:24.444Z,3.3
2023-02-06T00:48:40.473Z,3.3
2023-02-06T00:54:36.898Z,3.3
2023-02-06T01:00:02.995Z,3.2
2023-02-06T01:05:44.723Z,3.2
2023-02-06T01:11:21.235Z,3.2
2023-02-06T01:16:49.530Z,3.2
2023-02-06T01:22:24.384Z,3.1
2023-02-06T01:27:58.769Z,3.1
2023-02-06T01:33:07.888Z,3.1
2023-02-06T01:39:09.701Z,3
2023-02-06T01:44:27.170Z,3
2023-02-06T01:49:51.486Z,3
2023-02-06T01:55:25.916Z,2.9
2023-02-06T02:01:05.411Z,3
2023-02-06T02:06:46.841Z,2.9
2023-02-06T02:12:24.548Z,2.8
2023-02-06T02:17:39.029Z,2.9
2023-02-06T02:23:35.626Z,2.8
2023-02-06T02:29:07.650Z,2.8
2023-02-06T02:34:44.938Z,2.8
2023-02-06T02:40:08.287Z,2.8
2023-02-06T02:45:39.832Z,2.7
2023-02-06T02:51:07.470Z,2.7
2023-02-06T02:56:32.864Z,2.7
2023-02-06T03:02:28.900Z,2.6
2023-02-06T03:07:59.087Z,2.7
2023-02-06T03:13:35.764Z,2.7
2023-02-06T03:18:41.812Z,2.7
2023-02-06T03:24:32.068Z,2.7
2023-02-06T03:30:07.839Z,2.7
2023-02-06T03:35:41.864Z,2.7
2023-02-06T03:41:12.861Z,2.7
2023-02-06T03:46:43.198Z,2.6
2023-02-06T03:52:14.582Z,2.6
2023-02-06T03:57:46.479Z,2.7
2023-02-06T04:03:31.811Z,2.6
2023-02-06T04:08:47.822Z,2.7
2023-02-06T04:14:17.464Z,2.7
2023-02-06T04:19:58.161Z,2.7
2023-02-06T04:25:25.181Z,2.8
2023-02-06T04:31:04.235Z,2.8
2023-02-06T04:36:53.636Z,2.8
2023-02-06T04:42:02.721Z,2.7
2023-02-06T04:47:44.423Z,2.8
2023-02-06T04:53:17.509Z,2.7
2023-02-06T04:59:03.901Z,2.7
2023-02-06T05:04:42.436Z,2.7
2023-02-06T05:10:04.028Z,2.7
2023-02-06T05:15:32.754Z,2.7
2023-02-06T05:21:01.311Z,2.6
2023-02-06T05:26:46.260Z,2.5
2023-02-06T05:32:28.135Z,2.5
2023-02-06T05:37:59.116Z,2.5
2023-02-06T05:43:37.739Z,2.4
2023-02-06T05:49:04.846Z,2.5
2023-02-06T05:54:23.182Z,2.6
2023-02-06T05:59:56.766Z,2.5
2023-02-06T06:05:56.983Z,2.6
2023-02-06T06:11:30.775Z,2.4
2023-02-06T06:16:56.672Z,2.3
2023-02-06T06:22:24.153Z,2.3
2023-02-06T06:27:55.002Z,2.3
2023-02-06T06:33:40.253Z,2.1
2023-02-06T06:38:53.000Z,2.1
2023-02-06T06:44:30.132Z,2.2
2023-02-06T06:50:13.557Z,2.3
2023-02-06T06:55:54.734Z,2.2
2023-02-06T07:01:15.746Z,2.2
2023-02-06T07:06:49.093Z,2.3
2023-02-06T07:12:25.142Z,2.2
2023-02-06T07:17:59.168Z,2.1
2023-02-06T07:23:46.777Z,2.1
2023-02-06T07:29:19.156Z,2.1
2023-02-06T07:34:50.449Z,2.1
2023-02-06T07:40:13.163Z,2.2
2023-02-06T07:45:40.075Z,2.2
2023-02-06T07:51:18.756Z,2.2
2023-02-06T07:57:13.577Z,2.3
2023-02-06T08:02:32.478Z,2.4
2023-02-06T08:08:18.724Z,2.5
2023-02-06T08:13:53.327Z,2.7
2023-02-06T08:19:05.836Z,2.7
2023-02-06T08:24:48.758Z,2.8
2023-02-06T08:30:20.536Z,2.8
2023-02-06T08:36:09.014Z,2.7
2023-02-06T08:41:24.964Z,2.8
2023-02-06T08:47:09.527Z,2.8
2023-02-06T08:52:33.711Z,2.7
2023-02-06T08:58:26.501Z,2.7
2023-02-06T09:03:56.921Z,2.7
2023-02-06T09:09:17.710Z,2.7
2023-02-06T09:15:09.768Z,2.7
2023-02-06T09:20:43.328Z,2.7
2023-02-06T09:26:02.226Z,2.7
2023-02-06T09:31:47.809Z,2.7
2023-02-06T09:37:12.226Z,2.7
2023-02-06T09:42:35.809Z,2.8
2023-02-06T09:48:14.904Z,2.9
2023-02-06T09:53:53.736Z,2.8
2023-02-06T09:59:27.476Z,2.8
2023-02-06T10:04:48.334Z,2.8
2023-02-06T10:10:34.096Z,2.8
2023-02-06T10:16:23.659Z,2.8
2023-02-06T10:21:48.740Z,2.8
2023-02-06T10:27:33.193Z,2.8
2023-02-06T10:33:00.325Z,2.9
2023-02-06T10:38:25.720Z,2.8
2023-02-06T10:44:08.694Z,2.8
2023-02-06T10:49:32.323Z,2.8
2023-02-06T10:55:08.665Z,2.9
2023-02-06T11:00:42.086Z,2.9
2023-02-06T11:06:23.092Z,2.9
2023-02-06T11:11:38.142Z,2.9
2023-02-06T11:17:23.520Z,3
2023-02-06T11:23:03.256Z,3
2023-02-06T11:28:40.819Z,3
2023-02-06T11:33:56.142Z,3
2023-02-06T11:39:36.112Z,3
2023-02-06T11:45:17.822Z,3
2023-02-06T11:50:58.406Z,3.1
2023-02-06T11:56:17.369Z,3.1
2023-02-06T12:01:49.136Z,3.2
2023-02-06T12:07:24.976Z,3.3
2023-02-06T12:13:15.156Z,3.4
2023-02-06T12:18:41.887Z,3.5
2023-02-06T12:24:19.811Z,3.5
2023-02-06T12:29:54.349Z,3.5
2023-02-06T12:35:26.082Z,3.6
2023-02-06T12:40:44.287Z,3.7
2023-02-06T12:46:42.316Z,3.8
2023-02-06T12:52:06.554Z,3.9
2023-02-06T12:57:46.040Z,3.9
2023-02-06T13:03:21.177Z,3.9
2023-02-06T13:08:41.589Z,4
2023-02-06T13:14:25.167Z,3.9
2023-02-06T13:20:10.894Z,3.9
2023-02-06T13:25:19.333Z,3.8
2023-02-06T13:30:58.004Z,3.9
2023-02-06T13:36:40.846Z,4
2023-02-06T13:42:19.411Z,4
2023-02-06T13:48:00.339Z,4.1
2023-02-06T13:53:09.528Z,4
2023-02-06T13:59:07.526Z,4
2023-02-06T14:04:20.413Z,4
2023-02-06T14:09:59.511Z,3.9
2023-02-06T14:15:44.774Z,4
2023-02-06T14:21:12.856Z,3.9
2023-02-06T14:26:34.115Z,3.9
2023-02-06T14:32:11.411Z,4.2
2023-02-06T14:37:52.609Z,4.5
2023-02-06T14:43:16.695Z,4.4
2023-02-06T14:49:16.448Z,4.2
2023-02-06T14:54:30.813Z,4.4
2023-02-06T15:00:04.116Z,4.1
2023-02-06T15:05:34.516Z,4
2023-02-06T15:11:19.821Z,3.9
2023-02-06T15:17:06.015Z,3.9
2023-02-06T15:22:23.633Z,3.9
2023-02-06T15:28:08.140Z,4
2023-02-06T15:33:34.106Z,3.9
2023-02-06T15:39:12.592Z,3.9
2023-02-06T15:44:55.008Z,3.8
2023-02-06T15:50:09.672Z,3.8
2023-02-06T15:55:49.272Z,3.7
2023-02-06T16:01:23.779Z,3.7
2023-02-06T16:06:52.538Z,3.6
2023-02-06T16:12:42.146Z,3.6
2023-02-06T16:17:54.962Z,3.6
2023-02-06T16:23:51.162Z,3.5
2023-02-06T16:29:09.876Z,3.5
2023-02-06T16:34:41.058Z,3.4
2023-02-06T16:40:18.491Z,3.3
2023-02-06T16:45:55.944Z,3.3
2023-02-06T16:51:32.313Z,3.2
2023-02-06T16:57:20.151Z,3.3
2023-02-06T17:02:43.551Z,3.3
2023-02-06T17:08:18.541Z,3.2
2023-02-06T17:13:54.689Z,3.1
2023-02-06T17:19:19.747Z,3.1
2023-02-06T17:24:48.373Z,3.1
2023-02-06T17:30:41.199Z,3.1
2023-02-06T17:35:59.812Z,3.1
2023-02-06T17:41:45.794Z,3
2023-02-06T17:47:01.795Z,3.1
2023-02-06T17:52:34.120Z,3
2023-02-06T17:58:20.810Z,2.9
2023-02-06T18:03:52.667Z,2.7
2023-02-06T18:09:23.926Z,2.8
2023-02-06T18:14:53.634Z,2.8
2023-02-06T18:20:28.859Z,2.8
2023-02-06T18:26:00.517Z,2.7
2023-02-06T18:31:56.808Z,2.6
2023-02-06T18:37:11.411Z,2.5
2023-02-06T18:42:55.722Z,2.3
2023-02-06T18:48:22.745Z,2.3
2023-02-06T18:54:12.682Z,2.3
2023-02-06T18:59:26.280Z,2.2
2023-02-06T19:04:55.265Z,2.2
2023-02-06T19:10:47.346Z,2.1
2023-02-06T19:16:16.485Z,2
2023-02-06T19:21:40.635Z,1.9
2023-02-06T19:27:09.003Z,1.8
2023-02-06T19:32:52.383Z,1.6
2023-02-06T19:38:29.799Z,1.6
2023-02-06T19:44:16.144Z,1.6
2023-02-06T19:49:39.736Z,1.5
2023-02-06T19:55:24.411Z,1.5
2023-02-06T20:00:38.924Z,1.4
2023-02-06T20:06:11.223Z,1.4
2023-02-06T20:11:44.892Z,1.3
2023-02-06T20:17:33.281Z,1.3
2023-02-06T20:23:08.978Z,1.3
2023-02-06T20:28:34.567Z,1.2
2023-02-06T20:33:59.885Z,1.2
2023-02-06T20:39:44.368Z,1.2
2023-02-06T20:45:25.299Z,1.1
2023-02-06T20:50:46.533Z,1.1
2023-02-06T20:56:11.314Z,1
2023-02-06T21:02:02.186Z,1
2023-02-06T21:07:36.651Z,0.9
2023-02-06T21:13:03.904Z,0.8
2023-02-06T21:18:39.791Z,0.8
2023-02-06T21:23:58.971Z,0.8
2023-02-06T21:29:51.427Z,0.7
2023-02-06T21:35:23.317Z,0.7
2023-02-06T21:41:02.849Z,0.5
2023-02-06T21:46:33.456Z,0.3
2023-02-06T21:52:04.571Z,0.3
2023-02-06T21:57:33.885Z,0.2
2023-02-06T22:03:03.338Z,0.2
2023-02-06T22:08:40.452Z,0.2
2023-02-06T22:14:01.094Z,0.3
2023-02-06T22:19:53.081Z,0.2
2023-02-06T22:25:15.385Z,0.2
2023-02-06T22:30:53.076Z,0.2
2023-02-06T22:36:35.506Z,0.2
2023-02-06T22:41:57.980Z,0.2
2023-02-06T22:47:44.647Z,0.1
2023-02-06T22:53:25.444Z,0.2
2023-02-06T22:58:55.781Z,0.1
2023-02-06T23:04:24.961Z,0
2023-02-06T23:10:03.225Z,0.1
2023-02-06T23:15:27.230Z,0.2
2023-02-06T23:21:03.358Z,0.2
2023-02-06T23:26:50.336Z,0.3
2023-02-06T23:32:09.343Z,0.3
2023-02-06T23:37:30.755Z,0.3
2023-02-06T23:43:07.971Z,0.3
2023-02-06T23:48:44.382Z,0.3
2023-02-06T23:54:15.268Z,0.2
